createdAt,value
2023-03-30T00:01:50.656Z,92.46
2023-03-30T00:04:17.209Z,92.39
2023-03-30T00:06:43.671Z,92.58
2023-03-30T00:09:09.952Z,92.50
2023-03-30T00:11:36.270Z,91.77
2023-03-30T00:14:02.589Z,91.32
2023-03-30T00:16:28.981Z,91.24
2023-03-30T00:18:55.342Z,91.18
2023-03-30T00:21:21.642Z,91.16
2023-03-30T00:23:48.956Z,91.57
2023-03-30T00:26:16.369Z,91.50
2023-03-30T00:28:42.726Z,91.22
2023-03-30T00:31:09.028Z,91.10
2023-03-30T00:33:45.562Z,90.61
2023-03-30T00:36:13.288Z,90.49
2023-03-30T00:38:39.740Z,90.82
2023-03-30T00:41:06.208Z,90.68
2023-03-30T00:43:32.718Z,91.31
2023-03-30T00:45:59.160Z,91.56
2023-03-30T00:48:35.329Z,91.48
2023-03-30T00:51:06.081Z,91.77
2023-03-30T00:53:42.914Z,92.02
2023-03-30T00:56:11.828Z,92.18
2023-03-30T00:58:40.887Z,92.33
2023-03-30T01:01:10.591Z,92.29
2023-03-30T01:03:48.319Z,92.00
2023-03-30T01:06:15.863Z,92.39
2023-03-30T01:08:42.185Z,92.61
2023-03-30T01:11:08.598Z,93.00
2023-03-30T01:13:42.114Z,93.14
2023-03-30T01:16:48.225Z,93.49
2023-03-30T01:19:32.818Z,93.59
2023-03-30T01:22:19.077Z,93.83
2023-03-30T01:25:21.822Z,93.96
2023-03-30T01:28:34.924Z,94.01
2023-03-30T01:31:34.671Z,94.33
2023-03-30T01:34:06.890Z,94.31
2023-03-30T01:36:46.617Z,94.48
2023-03-30T01:39:46.896Z,93.97
2023-03-30T01:42:28.255Z,93.39
2023-03-30T01:45:27.331Z,93.30
2023-03-30T01:48:05.451Z,93.24
2023-03-30T01:50:55.137Z,92.45
2023-03-30T01:53:33.696Z,91.79
2023-03-30T01:56:21.286Z,91.26
2023-03-30T01:58:54.830Z,90.64
2023-03-30T02:01:21.939Z,90.08
2023-03-30T02:03:53.085Z,88.99
2023-03-30T02:06:26.853Z,88.26
2023-03-30T02:08:55.982Z,87.43
2023-03-30T02:11:25.425Z,87.34
2023-03-30T02:13:53.376Z,86.67
2023-03-30T02:16:27.801Z,85.96
2023-03-30T02:18:54.699Z,86.07
2023-03-30T02:21:21.176Z,85.15
2023-03-30T02:23:47.838Z,84.62
2023-03-30T02:26:14.269Z,84.61
2023-03-30T02:28:40.699Z,84.08
2023-03-30T02:31:14.625Z,83.81
2023-03-30T02:33:47.037Z,82.27
2023-03-30T02:36:21.047Z,81.23
2023-03-30T02:39:19.491Z,80.94
2023-03-30T02:41:48.428Z,80.35
2023-03-30T02:44:48.212Z,79.74
2023-03-30T02:47:20.880Z,80.24
2023-03-30T02:49:59.490Z,80.18
2023-03-30T02:52:58.212Z,80.15
2023-03-30T02:55:35.242Z,80.78
2023-03-30T02:58:20.126Z,80.88
2023-03-30T03:00:51.672Z,80.75
2023-03-30T03:03:28.981Z,81.03
2023-03-30T03:05:55.567Z,80.75
2023-03-30T03:08:25.311Z,81.05
2023-03-30T03:10:51.873Z,80.95
2023-03-30T03:13:18.340Z,80.72
2023-03-30T03:15:44.895Z,80.78
2023-03-30T03:18:12.658Z,80.84
2023-03-30T03:20:39.620Z,80.12
2023-03-30T03:23:06.214Z,80.27
2023-03-30T03:25:32.552Z,80.02
2023-03-30T03:27:58.870Z,79.66
2023-03-30T03:30:25.184Z,79.82
2023-03-30T03:32:51.614Z,80.01
2023-03-30T03:35:17.989Z,80.13
2023-03-30T03:37:44.318Z,80.01
2023-03-30T03:40:10.876Z,79.58
2023-03-30T03:42:37.904Z,78.65
2023-03-30T03:45:05.068Z,78.46
2023-03-30T03:47:32.401Z,77.48
2023-03-30T03:49:58.714Z,76.58
2023-03-30T03:52:25.022Z,77.14
2023-03-30T03:54:51.350Z,77.53
2023-03-30T03:57:17.715Z,77.48
2023-03-30T03:59:44.053Z,77.46
2023-03-30T04:02:10.419Z,77.51
2023-03-30T04:04:36.913Z,77.79
2023-03-30T04:07:03.265Z,77.90
2023-03-30T04:09:29.572Z,77.79
2023-03-30T04:11:55.882Z,78.13
2023-03-30T04:14:22.170Z,78.11
2023-03-30T04:16:48.597Z,78.50
2023-03-30T04:19:15.017Z,78.92
2023-03-30T04:21:41.476Z,78.77
2023-03-30T04:24:08.297Z,79.01
2023-03-30T04:26:34.618Z,78.99
2023-03-30T04:29:01.026Z,78.41
2023-03-30T04:31:27.396Z,78.12
2023-03-30T04:33:53.726Z,78.01
2023-03-30T04:36:20.738Z,78.77
2023-03-30T04:38:47.969Z,78.62
2023-03-30T04:41:14.274Z,78.43
2023-03-30T04:43:40.614Z,78.90
2023-03-30T04:46:06.939Z,78.82
2023-03-30T04:48:33.306Z,78.82
2023-03-30T04:50:59.646Z,78.97
2023-03-30T04:53:25.963Z,79.16
2023-03-30T04:55:52.320Z,79.28
2023-03-30T04:58:18.688Z,79.60
2023-03-30T05:00:45.026Z,79.71
2023-03-30T05:03:11.441Z,79.27
2023-03-30T05:05:37.871Z,76.82
2023-03-30T05:08:04.396Z,75.97
2023-03-30T05:10:30.825Z,74.48
2023-03-30T05:12:57.131Z,74.98
2023-03-30T05:15:23.474Z,74.66
2023-03-30T05:17:49.930Z,74.56
2023-03-30T05:20:16.828Z,74.26
2023-03-30T05:22:43.137Z,74.24
2023-03-30T05:25:09.845Z,74.35
2023-03-30T05:27:36.198Z,74.36
2023-03-30T05:30:02.885Z,74.71
2023-03-30T05:32:29.263Z,74.84
2023-03-30T05:34:55.615Z,74.68
2023-03-30T05:37:21.964Z,74.96
2023-03-30T05:39:48.329Z,74.77
2023-03-30T05:42:14.672Z,74.32
2023-03-30T05:44:41.127Z,73.94
2023-03-30T05:47:07.505Z,73.65
2023-03-30T05:49:33.844Z,74.06
2023-03-30T05:52:00.162Z,74.21
2023-03-30T05:56:52.896Z,74.12
2023-03-30T05:59:19.320Z,73.96
2023-03-30T06:01:45.629Z,73.82
2023-03-30T06:04:12.118Z,73.68
2023-03-30T06:06:38.537Z,73.45
2023-03-30T06:09:05.533Z,73.95
2023-03-30T06:11:31.932Z,74.02
2023-03-30T06:13:58.973Z,74.76
2023-03-30T06:16:25.457Z,74.33
2023-03-30T06:18:51.817Z,74.71
2023-03-30T06:21:18.128Z,74.22
2023-03-30T06:23:44.514Z,73.90
2023-03-30T06:26:10.809Z,74.06
2023-03-30T06:28:37.199Z,73.50
2023-03-30T06:31:08.681Z,72.67
2023-03-30T06:33:35.616Z,72.95
2023-03-30T06:36:01.993Z,73.30
2023-03-30T06:38:28.480Z,73.19
2023-03-30T06:40:54.805Z,72.54
2023-03-30T06:43:24.115Z,71.16
2023-03-30T06:45:55.641Z,70.47
2023-03-30T06:48:22.825Z,70.86
2023-03-30T06:50:50.554Z,71.03
2023-03-30T06:53:17.214Z,71.16
2023-03-30T06:55:43.621Z,70.65
2023-03-30T06:58:10.140Z,70.32
2023-03-30T07:00:36.955Z,70.11
2023-03-30T07:03:03.556Z,69.55
2023-03-30T07:05:30.095Z,69.51
2023-03-30T07:07:56.526Z,69.67
2023-03-30T07:10:23.369Z,68.99
2023-03-30T07:12:49.678Z,67.98
2023-03-30T07:15:16.227Z,67.92
2023-03-30T07:17:42.624Z,67.59
2023-03-30T07:20:10.157Z,67.21
2023-03-30T07:22:37.026Z,67.70
2023-03-30T07:25:04.453Z,66.41
2023-03-30T07:27:30.828Z,66.14
2023-03-30T07:30:04.525Z,66.55
2023-03-30T07:32:37.083Z,67.00
2023-03-30T07:35:03.864Z,67.47
2023-03-30T07:37:30.233Z,67.53
2023-03-30T07:39:56.670Z,67.55
2023-03-30T07:42:23.831Z,67.23
2023-03-30T07:44:50.176Z,65.84
2023-03-30T07:47:16.541Z,64.66
2023-03-30T07:49:42.845Z,63.77
2023-03-30T07:52:09.140Z,63.67
2023-03-30T07:54:35.528Z,63.66
2023-03-30T07:57:01.863Z,65.26
2023-03-30T07:59:28.190Z,64.35
2023-03-30T08:01:54.582Z,63.32
2023-03-30T08:04:22.889Z,63.95
2023-03-30T08:06:51.164Z,63.92
2023-03-30T08:09:17.457Z,63.95
2023-03-30T08:11:45.245Z,64.01
2023-03-30T08:14:11.579Z,63.46
2023-03-30T08:16:37.999Z,63.51
2023-03-30T08:19:04.376Z,63.56
2023-03-30T08:21:30.715Z,64.30
2023-03-30T08:23:57.214Z,63.69
2023-03-30T08:26:23.743Z,62.78
2023-03-30T08:28:50.074Z,62.58
2023-03-30T08:31:16.466Z,62.50
2023-03-30T08:33:42.766Z,62.10
2023-03-30T08:36:09.186Z,63.85
2023-03-30T08:38:35.717Z,67.43
2023-03-30T08:41:12.851Z,69.92
2023-03-30T08:43:47.747Z,72.30
2023-03-30T08:46:18.644Z,73.80
2023-03-30T08:48:45.936Z,74.44
2023-03-30T08:51:24.290Z,74.19
2023-03-30T08:53:56.390Z,71.98
2023-03-30T08:56:37.368Z,70.48
2023-03-30T08:59:43.406Z,71.00
2023-03-30T09:02:12.639Z,71.35
2023-03-30T09:05:02.223Z,70.85
2023-03-30T09:07:32.537Z,71.06
2023-03-30T09:10:00.133Z,72.08
2023-03-30T09:12:47.526Z,69.22
2023-03-30T09:15:25.542Z,69.14
2023-03-30T09:17:58.694Z,70.43
2023-03-30T09:20:33.846Z,70.58
2023-03-30T09:23:02.344Z,70.51
2023-03-30T09:25:59.904Z,71.98
2023-03-30T09:28:45.106Z,73.63
2023-03-30T09:31:21.840Z,74.42
2023-03-30T09:34:02.436Z,76.31
2023-03-30T09:36:53.829Z,81.66
2023-03-30T09:39:23.647Z,87.24
2023-03-30T09:42:04.980Z,89.65
2023-03-30T09:44:52.167Z,92.29
2023-03-30T09:47:27.510Z,91.28
2023-03-30T09:50:02.065Z,91.04
2023-03-30T09:52:30.048Z,89.86
2023-03-30T09:54:56.353Z,88.45
2023-03-30T09:57:24.522Z,86.92
2023-03-30T09:59:50.956Z,86.95
2023-03-30T10:02:20.320Z,86.35
2023-03-30T10:04:53.068Z,83.88
2023-03-30T10:07:31.977Z,85.00
2023-03-30T10:10:01.559Z,85.25
2023-03-30T10:12:29.810Z,85.41
2023-03-30T10:15:02.836Z,86.14
2023-03-30T10:17:29.558Z,86.39
2023-03-30T10:20:17.571Z,86.04
2023-03-30T10:22:53.861Z,87.46
2023-03-30T10:25:23.299Z,85.72
2023-03-30T10:27:51.477Z,84.42
2023-03-30T10:30:19.803Z,81.69
2023-03-30T10:32:46.333Z,77.55
2023-03-30T10:35:19.235Z,75.60
2023-03-30T10:37:46.760Z,75.61
2023-03-30T10:40:46.475Z,75.07
2023-03-30T10:43:17.639Z,74.38
2023-03-30T10:45:48.097Z,74.56
2023-03-30T10:48:33.881Z,73.00
2023-03-30T10:51:24.495Z,72.06
2023-03-30T10:54:26.207Z,69.86
2023-03-30T10:57:10.501Z,68.49
2023-03-30T11:00:02.857Z,68.09
2023-03-30T11:02:38.283Z,68.01
2023-03-30T11:05:12.859Z,67.38
2023-03-30T11:07:46.061Z,67.83
2023-03-30T11:10:16.218Z,66.42
2023-03-30T11:12:55.067Z,66.75
2023-03-30T11:15:33.384Z,66.58
2023-03-30T11:18:08.888Z,67.40
2023-03-30T11:20:45.648Z,64.09
2023-03-30T11:23:26.365Z,63.16
2023-03-30T11:25:58.874Z,62.42
2023-03-30T11:28:48.732Z,62.29
2023-03-30T11:31:28.614Z,62.97
2023-03-30T11:34:05.277Z,64.14
2023-03-30T11:36:43.800Z,61.94
2023-03-30T11:39:31.169Z,63.06
2023-03-30T11:42:18.053Z,62.71
2023-03-30T11:44:44.377Z,62.44
2023-03-30T11:47:24.532Z,63.50
2023-03-30T11:50:15.489Z,63.83
2023-03-30T11:52:53.980Z,64.28
2023-03-30T11:55:55.857Z,63.77
2023-03-30T11:58:45.873Z,62.40
2023-03-30T12:01:34.893Z,63.82
2023-03-30T12:04:09.962Z,63.33
2023-03-30T12:06:41.960Z,63.57
2023-03-30T12:09:23.267Z,63.54
2023-03-30T12:12:02.158Z,63.84
2023-03-30T12:14:32.595Z,65.68
2023-03-30T12:17:04.649Z,65.79
2023-03-30T12:19:55.212Z,65.50
2023-03-30T12:22:33.921Z,63.62
2023-03-30T12:25:25.899Z,61.88
2023-03-30T12:27:55.000Z,62.26
2023-03-30T12:30:30.361Z,62.04
2023-03-30T12:33:02.587Z,61.19
2023-03-30T12:35:47.808Z,60.90
2023-03-30T12:38:21.737Z,61.27
2023-03-30T12:41:05.044Z,60.51
2023-03-30T12:43:44.729Z,60.97
2023-03-30T12:46:28.410Z,61.56
2023-03-30T12:49:07.186Z,63.78
2023-03-30T12:51:45.907Z,70.71
2023-03-30T12:54:37.893Z,74.55
2023-03-30T12:57:26.158Z,75.20
2023-03-30T13:00:36.824Z,76.26
2023-03-30T13:03:23.466Z,78.42
2023-03-30T13:05:52.853Z,80.91
2023-03-30T13:08:26.656Z,81.17
2023-03-30T13:11:09.362Z,80.20
2023-03-30T13:14:16.972Z,81.65
2023-03-30T13:16:50.410Z,81.16
2023-03-30T13:19:33.416Z,79.22
2023-03-30T13:22:12.089Z,78.58
2023-03-30T13:24:41.605Z,78.44
2023-03-30T13:27:14.379Z,75.44
2023-03-30T13:29:42.223Z,75.57
2023-03-30T13:32:32.612Z,73.54
2023-03-30T13:35:29.536Z,72.95
2023-03-30T13:38:24.354Z,71.45
2023-03-30T13:41:04.424Z,69.75
2023-03-30T13:43:41.046Z,68.98
2023-03-30T13:46:16.172Z,68.88
2023-03-30T13:48:56.423Z,64.92
2023-03-30T13:51:26.189Z,63.81
2023-03-30T13:54:14.411Z,64.35
2023-03-30T13:56:46.453Z,63.65
2023-03-30T13:59:21.432Z,63.30
2023-03-30T14:01:53.690Z,63.32
2023-03-30T14:04:20.325Z,64.24
2023-03-30T14:06:48.564Z,62.62
2023-03-30T14:09:26.588Z,63.93
2023-03-30T14:11:57.965Z,64.74
2023-03-30T14:14:37.083Z,64.13
2023-03-30T14:17:14.587Z,62.45
2023-03-30T14:20:24.436Z,62.18
2023-03-30T14:22:51.440Z,61.09
2023-03-30T14:25:35.984Z,61.17
2023-03-30T14:28:10.993Z,61.84
2023-03-30T14:30:37.309Z,62.74
2023-03-30T14:33:09.482Z,63.58
2023-03-30T14:35:48.357Z,62.93
2023-03-30T14:38:20.312Z,62.67
2023-03-30T14:40:47.043Z,63.15
2023-03-30T14:43:16.723Z,61.78
2023-03-30T14:45:43.984Z,62.52
2023-03-30T14:48:20.990Z,62.59
2023-03-30T14:50:48.848Z,61.89
2023-03-30T14:53:25.977Z,61.29
2023-03-30T14:55:55.094Z,62.74
2023-03-30T14:58:21.481Z,63.16
2023-03-30T15:00:47.906Z,64.54
2023-03-30T15:03:22.948Z,66.26
2023-03-30T15:06:04.989Z,67.74
2023-03-30T15:08:36.241Z,69.82
2023-03-30T15:11:08.277Z,74.23
2023-03-30T15:13:45.845Z,75.00
2023-03-30T15:16:32.227Z,75.29
2023-03-30T15:19:05.496Z,74.09
2023-03-30T15:21:35.770Z,73.74
2023-03-30T15:24:07.054Z,71.71
2023-03-30T15:26:34.530Z,71.15
2023-03-30T15:29:01.100Z,73.03
2023-03-30T15:31:28.508Z,71.47
2023-03-30T15:33:57.319Z,72.00
2023-03-30T15:36:43.895Z,73.05
2023-03-30T15:39:36.884Z,75.21
2023-03-30T15:42:06.497Z,75.14
2023-03-30T15:44:38.009Z,74.42
2023-03-30T15:47:12.246Z,74.94
2023-03-30T15:49:45.512Z,74.73
2023-03-30T15:52:21.711Z,75.20
2023-03-30T15:54:55.378Z,74.75
2023-03-30T15:57:29.847Z,74.76
2023-03-30T16:00:00.474Z,75.36
2023-03-30T16:02:32.697Z,75.67
2023-03-30T16:05:04.076Z,75.46
2023-03-30T16:07:32.123Z,75.78
2023-03-30T16:09:58.633Z,76.62
2023-03-30T16:12:30.039Z,76.05
2023-03-30T16:14:56.831Z,75.73
2023-03-30T16:17:23.428Z,75.82
2023-03-30T16:19:50.136Z,75.60
2023-03-30T16:22:16.590Z,74.67
2023-03-30T16:24:43.325Z,75.22
2023-03-30T16:27:12.753Z,74.92
2023-03-30T16:29:39.148Z,74.27
2023-03-30T16:32:05.873Z,73.99
2023-03-30T16:34:32.516Z,73.13
2023-03-30T16:36:58.850Z,72.56
2023-03-30T16:39:27.810Z,73.43
2023-03-30T16:41:55.196Z,73.77
2023-03-30T16:44:23.857Z,74.69
2023-03-30T16:46:51.438Z,75.24
2023-03-30T16:49:20.556Z,75.63
2023-03-30T16:51:46.968Z,75.52
2023-03-30T16:54:29.395Z,75.21
2023-03-30T16:56:57.361Z,74.16
2023-03-30T16:59:26.390Z,74.66
2023-03-30T17:01:53.185Z,74.77
2023-03-30T17:04:19.868Z,75.30
2023-03-30T17:06:46.240Z,75.53
2023-03-30T17:09:16.149Z,76.14
2023-03-30T17:11:43.575Z,76.83
2023-03-30T17:14:10.493Z,76.56
2023-03-30T17:16:36.926Z,76.82
2023-03-30T17:19:03.418Z,77.13
2023-03-30T17:21:29.745Z,78.08
2023-03-30T17:23:56.108Z,79.82
2023-03-30T17:26:22.516Z,81.99
2023-03-30T17:28:48.813Z,84.59
2023-03-30T17:31:18.644Z,82.52
2023-03-30T17:33:46.281Z,83.68
2023-03-30T17:36:23.003Z,85.79
2023-03-30T17:38:50.379Z,86.75
2023-03-30T17:41:18.075Z,87.70
2023-03-30T17:43:45.300Z,88.26
2023-03-30T17:46:13.090Z,88.81
2023-03-30T17:48:39.622Z,89.20
2023-03-30T17:51:06.130Z,89.90
2023-03-30T17:53:33.305Z,90.65
2023-03-30T17:55:59.888Z,90.40
2023-03-30T17:58:31.578Z,90.39
2023-03-30T18:00:59.302Z,91.15
2023-03-30T18:03:25.958Z,91.56
2023-03-30T18:05:52.649Z,91.81
2023-03-30T18:08:20.539Z,91.58
2023-03-30T18:10:48.955Z,91.46
2023-03-30T18:13:16.166Z,91.34
2023-03-30T18:15:43.234Z,92.13
2023-03-30T18:18:11.297Z,92.59
2023-03-30T18:20:42.753Z,93.19
2023-03-30T18:23:09.522Z,92.95
2023-03-30T18:25:36.162Z,93.48
2023-03-30T18:28:03.071Z,93.88
2023-03-30T18:30:36.220Z,94.67
2023-03-30T18:33:02.679Z,94.49
2023-03-30T18:35:30.545Z,94.30
2023-03-30T18:37:57.489Z,95.05
2023-03-30T18:40:35.793Z,95.89
2023-03-30T18:43:02.162Z,96.34
2023-03-30T18:45:31.834Z,96.71
2023-03-30T18:47:58.813Z,96.31
2023-03-30T18:50:43.299Z,96.17
2023-03-30T18:53:12.605Z,96.35
2023-03-30T18:55:41.652Z,95.79
2023-03-30T18:58:16.491Z,95.89
2023-03-30T19:00:42.740Z,95.41
2023-03-30T19:03:09.295Z,94.78
2023-03-30T19:05:35.989Z,95.28
2023-03-30T19:08:02.310Z,94.92
2023-03-30T19:10:31.518Z,94.48
2023-03-30T19:12:58.329Z,94.41
2023-03-30T19:15:27.345Z,94.27
2023-03-30T19:17:54.112Z,94.54
2023-03-30T19:20:23.562Z,94.64
2023-03-30T19:22:50.676Z,94.69
2023-03-30T19:25:18.929Z,94.73
2023-03-30T19:27:59.614Z,94.53
2023-03-30T19:30:28.130Z,94.48
2023-03-30T19:32:58.249Z,93.89
2023-03-30T19:35:25.214Z,94.05
2023-03-30T19:37:51.849Z,94.00
2023-03-30T19:40:19.013Z,94.02
2023-03-30T19:42:46.875Z,93.92
2023-03-30T19:45:14.839Z,93.91
2023-03-30T19:47:41.602Z,94.25
2023-03-30T19:50:10.591Z,94.84
2023-03-30T19:52:37.897Z,95.44
2023-03-30T19:55:05.395Z,94.49
2023-03-30T19:57:31.730Z,94.62
2023-03-30T19:59:58.118Z,94.38
2023-03-30T20:02:24.570Z,93.88
2023-03-30T20:04:52.947Z,93.65
2023-03-30T20:07:19.708Z,93.52
2023-03-30T20:09:46.363Z,93.31
2023-03-30T20:12:12.673Z,92.86
2023-03-30T20:14:39.059Z,92.20
2023-03-30T20:17:05.400Z,92.44
2023-03-30T20:19:31.713Z,92.56
2023-03-30T20:21:58.860Z,93.55
2023-03-30T20:24:25.644Z,95.29
2023-03-30T20:26:52.297Z,96.29
2023-03-30T20:29:18.981Z,96.83
2023-03-30T20:31:45.342Z,97.22
2023-03-30T20:34:12.120Z,97.85
2023-03-30T20:36:39.185Z,98.16
2023-03-30T20:39:07.237Z,98.66
2023-03-30T20:41:34.325Z,98.21
2023-03-30T20:44:00.640Z,97.64
2023-03-30T20:46:26.930Z,97.57
2023-03-30T20:48:53.441Z,97.83
2023-03-30T20:51:22.167Z,98.16
2023-03-30T20:53:49.857Z,97.46
2023-03-30T20:56:17.247Z,97.22
2023-03-30T20:58:43.885Z,96.93
2023-03-30T21:01:22.286Z,97.48
2023-03-30T21:03:48.646Z,97.60
2023-03-30T21:06:15.493Z,97.52
2023-03-30T21:08:41.889Z,97.27
2023-03-30T21:11:08.890Z,97.11
2023-03-30T21:13:35.610Z,96.51
2023-03-30T21:16:05.338Z,96.71
2023-03-30T21:18:32.751Z,96.90
2023-03-30T21:20:59.153Z,97.03
2023-03-30T21:23:25.600Z,96.85
2023-03-30T21:25:58.337Z,96.81
2023-03-30T21:28:28.475Z,96.76
2023-03-30T21:30:56.656Z,96.66
2023-03-30T21:33:27.416Z,96.55
2023-03-30T21:35:56.045Z,96.41
2023-03-30T21:38:23.647Z,95.48
2023-03-30T21:41:07.250Z,94.90
2023-03-30T21:43:36.457Z,94.85
2023-03-30T21:46:05.610Z,94.54
2023-03-30T21:48:37.044Z,94.53
2023-03-30T21:51:06.619Z,95.40
2023-03-30T21:53:34.461Z,96.50
2023-03-30T21:56:01.812Z,96.67
2023-03-30T21:58:28.809Z,96.53
2023-03-30T22:01:04.955Z,96.64
2023-03-30T22:03:38.345Z,97.47
2023-03-30T22:06:07.414Z,97.89
2023-03-30T22:08:34.184Z,98.18
2023-03-30T22:11:06.840Z,98.09
2023-03-30T22:13:33.341Z,97.71
2023-03-30T22:16:03.054Z,97.44
2023-03-30T22:18:30.198Z,97.15
2023-03-30T22:20:59.542Z,97.11
2023-03-30T22:23:26.101Z,96.96
2023-03-30T22:25:52.609Z,96.78
2023-03-30T22:28:19.141Z,96.71
2023-03-30T22:30:45.690Z,96.63
2023-03-30T22:33:12.701Z,95.94
2023-03-30T22:35:40.963Z,95.15
2023-03-30T22:38:08.934Z,95.11
2023-03-30T22:40:35.726Z,94.21
2023-03-30T22:43:03.390Z,94.01
2023-03-30T22:45:30.513Z,94.23
2023-03-30T22:47:57.026Z,93.77
2023-03-30T22:50:25.141Z,93.36
2023-03-30T22:52:51.955Z,92.64
2023-03-30T22:55:18.518Z,92.43
2023-03-30T22:57:45.499Z,92.82
2023-03-30T23:00:12.583Z,92.92
2023-03-30T23:02:39.844Z,92.06
2023-03-30T23:05:07.036Z,91.62
2023-03-30T23:07:33.809Z,91.41
2023-03-30T23:10:00.666Z,91.40
2023-03-30T23:12:26.981Z,92.25
2023-03-30T23:14:53.263Z,91.91
2023-03-30T23:17:19.576Z,92.48
2023-03-30T23:19:45.895Z,92.67
2023-03-30T23:22:12.197Z,92.22
2023-03-30T23:24:38.500Z,92.27
2023-03-30T23:27:04.961Z,92.70
2023-03-30T23:29:31.245Z,92.01
2023-03-30T23:31:57.572Z,91.05
2023-03-30T23:34:23.954Z,91.43
2023-03-30T23:36:50.341Z,90.98
2023-03-30T23:39:16.745Z,90.92
2023-03-30T23:41:43.232Z,91.08
2023-03-30T23:44:09.554Z,91.30
2023-03-30T23:46:35.900Z,91.15
2023-03-30T23:49:02.276Z,90.70
2023-03-30T23:51:28.880Z,90.82
2023-03-30T23:53:55.234Z,91.04
2023-03-30T23:56:21.552Z,91.36
2023-03-30T23:58:47.852Z,91.02
